sensor_id;sensor_type;location;lat;lon;timestamp;P1;durP1;ratioP1;P2;durP2;ratioP2
7049;SDS011;22263;52.260;10.548;2022-09-20T00:00:47;9.50;;;3.38;;
7049;SDS011;22263;52.260;10.548;2022-09-20T00:03:17;9.23;;;3.05;;
7049;SDS011;22263;52.260;10.548;2022-09-20T00:05:46;12.10;;;3.35;;
7049;SDS011;22263;52.260;10.548;2022-09-20T00:08:16;9.82;;;3.10;;
7049;SDS011;22263;52.260;10.548;2022-09-20T00:10:45;7.88;;;2.83;;
7049;SDS011;22263;52.260;10.548;2022-09-20T00:13:15;9.43;;;3.05;;
7049;SDS011;22263;52.260;10.548;2022-09-20T00:15:47;14.63;;;3.47;;
7049;SDS011;22263;52.260;10.548;2022-09-20T00:18:17;12.98;;;2.78;;
7049;SDS011;22263;52.260;10.548;2022-09-20T00:20:47;9.68;;;2.75;;
7049;SDS011;22263;52.260;10.548;2022-09-20T00:23:18;9.60;;;2.83;;
7049;SDS011;22263;52.260;10.548;2022-09-20T00:25:53;11.57;;;2.83;;
7049;SDS011;22263;52.260;10.548;2022-09-20T00:28:24;12.10;;;2.92;;
7049;SDS011;22263;52.260;10.548;2022-09-20T00:30:56;14.02;;;3.42;;
7049;SDS011;22263;52.260;10.548;2022-09-20T00:33:25;13.10;;;3.10;;
7049;SDS011;22263;52.260;10.548;2022-09-20T00:36:16;12.77;;;3.63;;
7049;SDS011;22263;52.260;10.548;2022-09-20T00:38:43;16.17;;;6.13;;
7049;SDS011;22263;52.260;10.548;2022-09-20T00:41:12;21.33;;;8.75;;
7049;SDS011;22263;52.260;10.548;2022-09-20T00:43:43;11.25;;;3.20;;
7049;SDS011;22263;52.260;10.548;2022-09-20T00:46:18;16.90;;;4.30;;
7049;SDS011;22263;52.260;10.548;2022-09-20T00:48:53;16.50;;;3.07;;
7049;SDS011;22263;52.260;10.548;2022-09-20T00:51:27;7.60;;;3.08;;
7049;SDS011;22263;52.260;10.548;2022-09-20T00:54:00;13.55;;;3.67;;
7049;SDS011;22263;52.260;10.548;2022-09-20T00:56:35;8.40;;;3.05;;
7049;SDS011;22263;52.260;10.548;2022-09-20T00:59:10;9.80;;;3.65;;
7049;SDS011;22263;52.260;10.548;2022-09-20T01:01:49;8.95;;;3.63;;
7049;SDS011;22263;52.260;10.548;2022-09-20T01:04:22;9.82;;;3.13;;
7049;SDS011;22263;52.260;10.548;2022-09-20T01:06:55;11.25;;;4.00;;
7049;SDS011;22263;52.260;10.548;2022-09-20T01:09:28;13.05;;;3.60;;
7049;SDS011;22263;52.260;10.548;2022-09-20T01:11:59;13.68;;;3.22;;
7049;SDS011;22263;52.260;10.548;2022-09-20T01:14:32;16.92;;;3.83;;
7049;SDS011;22263;52.260;10.548;2022-09-20T01:17:05;17.20;;;3.70;;
7049;SDS011;22263;52.260;10.548;2022-09-20T01:19:37;10.10;;;3.17;;
7049;SDS011;22263;52.260;10.548;2022-09-20T01:22:12;6.50;;;3.13;;
7049;SDS011;22263;52.260;10.548;2022-09-20T01:24:48;9.40;;;3.15;;
7049;SDS011;22263;52.260;10.548;2022-09-20T01:27:36;8.15;;;3.08;;
7049;SDS011;22263;52.260;10.548;2022-09-20T01:32:52;11.57;;;4.07;;
7049;SDS011;22263;52.260;10.548;2022-09-20T01:38:27;10.23;;;3.08;;
7049;SDS011;22263;52.260;10.548;2022-09-20T01:41:10;12.15;;;3.70;;
7049;SDS011;22263;52.260;10.548;2022-09-20T01:43:47;11.30;;;3.53;;
7049;SDS011;22263;52.260;10.548;2022-09-20T01:46:27;8.30;;;2.83;;
7049;SDS011;22263;52.260;10.548;2022-09-20T01:49:03;12.90;;;3.40;;
7049;SDS011;22263;52.260;10.548;2022-09-20T01:51:58;11.20;;;2.85;;
7049;SDS011;22263;52.260;10.548;2022-09-20T02:01:12;12.65;;;3.67;;
7049;SDS011;22263;52.260;10.548;2022-09-20T02:13:18;14.30;;;3.45;;
7049;SDS011;22263;52.260;10.548;2022-09-20T02:19:08;11.48;;;4.68;;
7049;SDS011;22263;52.260;10.548;2022-09-20T02:21:58;16.50;;;5.50;;
7049;SDS011;22263;52.260;10.548;2022-09-20T02:24:43;15.82;;;6.00;;
7049;SDS011;22263;52.260;10.548;2022-09-20T02:27:25;14.93;;;6.70;;
7049;SDS011;22263;52.260;10.548;2022-09-20T02:30:17;18.80;;;7.35;;
7049;SDS011;22263;52.260;10.548;2022-09-20T02:33:05;16.13;;;7.53;;
7049;SDS011;22263;52.260;10.548;2022-09-20T02:35:56;16.75;;;7.78;;
7049;SDS011;22263;52.260;10.548;2022-09-20T02:38:48;16.40;;;8.63;;
7049;SDS011;22263;52.260;10.548;2022-09-20T02:41:41;16.10;;;7.53;;
7049;SDS011;22263;52.260;10.548;2022-09-20T02:44:44;18.45;;;8.25;;
7049;SDS011;22263;52.260;10.548;2022-09-20T02:47:25;14.80;;;7.80;;
7049;SDS011;22263;52.260;10.548;2022-09-20T02:50:10;17.67;;;9.02;;
7049;SDS011;22263;52.260;10.548;2022-09-20T02:52:56;18.67;;;9.93;;
7049;SDS011;22263;52.260;10.548;2022-09-20T02:55:38;17.75;;;8.98;;
7049;SDS011;22263;52.260;10.548;2022-09-20T02:58:22;19.75;;;9.15;;
7049;SDS011;22263;52.260;10.548;2022-09-20T03:01:07;31.42;;;11.45;;
7049;SDS011;22263;52.260;10.548;2022-09-20T03:03:50;20.10;;;10.85;;
7049;SDS011;22263;52.260;10.548;2022-09-20T03:06:40;19.38;;;10.43;;
7049;SDS011;22263;52.260;10.548;2022-09-20T03:09:18;20.27;;;11.13;;
7049;SDS011;22263;52.260;10.548;2022-09-20T03:12:01;17.67;;;10.55;;
7049;SDS011;22263;52.260;10.548;2022-09-20T03:14:40;25.83;;;11.57;;
7049;SDS011;22263;52.260;10.548;2022-09-20T03:17:17;20.00;;;10.90;;
7049;SDS011;22263;52.260;10.548;2022-09-20T03:19:58;26.73;;;11.15;;
7049;SDS011;22263;52.260;10.548;2022-09-20T03:22:43;22.50;;;12.05;;
7049;SDS011;22263;52.260;10.548;2022-09-20T03:25:34;24.55;;;11.70;;
7049;SDS011;22263;52.260;10.548;2022-09-20T03:28:15;24.17;;;11.82;;
7049;SDS011;22263;52.260;10.548;2022-09-20T03:30:56;23.83;;;12.65;;
7049;SDS011;22263;52.260;10.548;2022-09-20T03:33:40;21.73;;;11.07;;
7049;SDS011;22263;52.260;10.548;2022-09-20T03:36:24;23.17;;;12.30;;
7049;SDS011;22263;52.260;10.548;2022-09-20T03:39:14;22.48;;;11.98;;
7049;SDS011;22263;52.260;10.548;2022-09-20T03:42:09;25.13;;;12.35;;
7049;SDS011;22263;52.260;10.548;2022-09-20T03:44:52;21.17;;;10.68;;
7049;SDS011;22263;52.260;10.548;2022-09-20T03:47:43;25.55;;;11.98;;
7049;SDS011;22263;52.260;10.548;2022-09-20T03:50:39;26.02;;;12.18;;
7049;SDS011;22263;52.260;10.548;2022-09-20T03:53:28;18.73;;;10.73;;
7049;SDS011;22263;52.260;10.548;2022-09-20T03:59:25;23.98;;;11.50;;
7049;SDS011;22263;52.260;10.548;2022-09-20T04:02:15;23.30;;;10.82;;
7049;SDS011;22263;52.260;10.548;2022-09-20T04:05:04;24.15;;;12.05;;
7049;SDS011;22263;52.260;10.548;2022-09-20T04:07:41;19.30;;;11.82;;
7049;SDS011;22263;52.260;10.548;2022-09-20T04:13:37;28.08;;;12.18;;
7049;SDS011;22263;52.260;10.548;2022-09-20T04:16:16;24.75;;;11.93;;
7049;SDS011;22263;52.260;10.548;2022-09-20T04:19:00;28.80;;;12.80;;
7049;SDS011;22263;52.260;10.548;2022-09-20T04:21:41;22.98;;;13.05;;
7049;SDS011;22263;52.260;10.548;2022-09-20T04:24:17;24.50;;;14.70;;
7049;SDS011;22263;52.260;10.548;2022-09-20T04:26:54;29.25;;;17.50;;
7049;SDS011;22263;52.260;10.548;2022-09-20T04:29:34;27.60;;;13.25;;
7049;SDS011;22263;52.260;10.548;2022-09-20T04:32:15;26.45;;;14.45;;
7049;SDS011;22263;52.260;10.548;2022-09-20T04:34:51;27.48;;;13.80;;
7049;SDS011;22263;52.260;10.548;2022-09-20T04:37:56;26.92;;;14.10;;
7049;SDS011;22263;52.260;10.548;2022-09-20T04:40:35;26.50;;;14.38;;
7049;SDS011;22263;52.260;10.548;2022-09-20T04:43:38;26.75;;;14.55;;
7049;SDS011;22263;52.260;10.548;2022-09-20T04:50:02;27.02;;;14.02;;
7049;SDS011;22263;52.260;10.548;2022-09-20T04:53:17;28.63;;;13.63;;
7049;SDS011;22263;52.260;10.548;2022-09-20T04:56:00;26.98;;;12.82;;
7049;SDS011;22263;52.260;10.548;2022-09-20T04:58:39;22.88;;;12.50;;
7049;SDS011;22263;52.260;10.548;2022-09-20T05:01:34;26.40;;;12.85;;
7049;SDS011;22263;52.260;10.548;2022-09-20T05:07:52;27.90;;;13.05;;
7049;SDS011;22263;52.260;10.548;2022-09-20T05:10:47;30.52;;;13.07;;
7049;SDS011;22263;52.260;10.548;2022-09-20T05:13:48;27.52;;;14.05;;
7049;SDS011;22263;52.260;10.548;2022-09-20T05:16:33;25.63;;;12.90;;
7049;SDS011;22263;52.260;10.548;2022-09-20T05:19:22;25.90;;;12.57;;
7049;SDS011;22263;52.260;10.548;2022-09-20T05:22:22;34.47;;;14.93;;
7049;SDS011;22263;52.260;10.548;2022-09-20T05:25:25;29.20;;;13.05;;
7049;SDS011;22263;52.260;10.548;2022-09-20T05:28:09;23.50;;;12.82;;
7049;SDS011;22263;52.260;10.548;2022-09-20T05:30:45;36.47;;;20.65;;
7049;SDS011;22263;52.260;10.548;2022-09-20T05:33:21;42.42;;;23.90;;
7049;SDS011;22263;52.260;10.548;2022-09-20T05:36:01;28.85;;;15.30;;
7049;SDS011;22263;52.260;10.548;2022-09-20T05:38:51;28.20;;;14.10;;
7049;SDS011;22263;52.260;10.548;2022-09-20T05:41:33;27.83;;;13.50;;
7049;SDS011;22263;52.260;10.548;2022-09-20T05:44:18;30.05;;;13.10;;
7049;SDS011;22263;52.260;10.548;2022-09-20T05:47:15;27.58;;;14.65;;
7049;SDS011;22263;52.260;10.548;2022-09-20T05:49:50;38.17;;;15.38;;
7049;SDS011;22263;52.260;10.548;2022-09-20T05:52:35;29.13;;;14.13;;
7049;SDS011;22263;52.260;10.548;2022-09-20T05:58:36;38.00;;;17.98;;
7049;SDS011;22263;52.260;10.548;2022-09-20T06:01:22;34.03;;;16.30;;
7049;SDS011;22263;52.260;10.548;2022-09-20T06:04:05;34.22;;;15.38;;
7049;SDS011;22263;52.260;10.548;2022-09-20T06:06:46;36.47;;;16.65;;
7049;SDS011;22263;52.260;10.548;2022-09-20T06:09:34;33.50;;;14.95;;
7049;SDS011;22263;52.260;10.548;2022-09-20T06:12:20;30.20;;;14.93;;
7049;SDS011;22263;52.260;10.548;2022-09-20T06:15:13;36.05;;;16.52;;
7049;SDS011;22263;52.260;10.548;2022-09-20T06:17:49;34.88;;;14.90;;
7049;SDS011;22263;52.260;10.548;2022-09-20T06:20:27;44.33;;;25.92;;
7049;SDS011;22263;52.260;10.548;2022-09-20T06:23:07;32.35;;;15.05;;
7049;SDS011;22263;52.260;10.548;2022-09-20T06:25:39;31.25;;;14.35;;
7049;SDS011;22263;52.260;10.548;2022-09-20T06:28:16;32.72;;;14.80;;
7049;SDS011;22263;52.260;10.548;2022-09-20T06:30:50;52.97;;;33.80;;
7049;SDS011;22263;52.260;10.548;2022-09-20T06:33:23;37.38;;;21.98;;
7049;SDS011;22263;52.260;10.548;2022-09-20T06:36:01;50.38;;;30.90;;
7049;SDS011;22263;52.260;10.548;2022-09-20T06:38:50;69.13;;;40.28;;
7049;SDS011;22263;52.260;10.548;2022-09-20T06:41:48;148.07;;;93.55;;
7049;SDS011;22263;52.260;10.548;2022-09-20T06:44:23;30.73;;;15.55;;
7049;SDS011;22263;52.260;10.548;2022-09-20T06:47:02;26.77;;;13.98;;
7049;SDS011;22263;52.260;10.548;2022-09-20T06:49:40;27.27;;;15.02;;
7049;SDS011;22263;52.260;10.548;2022-09-20T06:52:12;20.88;;;12.38;;
7049;SDS011;22263;52.260;10.548;2022-09-20T06:54:50;21.75;;;13.40;;
7049;SDS011;22263;52.260;10.548;2022-09-20T06:57:32;22.25;;;12.55;;
7049;SDS011;22263;52.260;10.548;2022-09-20T07:00:11;22.77;;;12.50;;
7049;SDS011;22263;52.260;10.548;2022-09-20T07:02:47;26.15;;;12.20;;
7049;SDS011;22263;52.260;10.548;2022-09-20T07:05:17;26.42;;;12.20;;
7049;SDS011;22263;52.260;10.548;2022-09-20T07:07:53;23.60;;;12.30;;
7049;SDS011;22263;52.260;10.548;2022-09-20T07:10:35;23.73;;;13.02;;
7049;SDS011;22263;52.260;10.548;2022-09-20T07:13:15;25.92;;;12.45;;
7049;SDS011;22263;52.260;10.548;2022-09-20T07:15:48;20.77;;;12.35;;
7049;SDS011;22263;52.260;10.548;2022-09-20T07:18:23;19.85;;;11.52;;
7049;SDS011;22263;52.260;10.548;2022-09-20T07:20:56;18.90;;;11.15;;
7049;SDS011;22263;52.260;10.548;2022-09-20T07:23:29;18.02;;;10.80;;
7049;SDS011;22263;52.260;10.548;2022-09-20T07:26:02;17.42;;;11.90;;
7049;SDS011;22263;52.260;10.548;2022-09-20T07:28:36;27.10;;;11.40;;
7049;SDS011;22263;52.260;10.548;2022-09-20T07:31:17;22.83;;;12.13;;
7049;SDS011;22263;52.260;10.548;2022-09-20T07:33:57;19.40;;;11.18;;
7049;SDS011;22263;52.260;10.548;2022-09-20T07:36:33;21.30;;;11.30;;
7049;SDS011;22263;52.260;10.548;2022-09-20T07:39:03;17.35;;;11.05;;
7049;SDS011;22263;52.260;10.548;2022-09-20T07:41:34;18.95;;;10.55;;
7049;SDS011;22263;52.260;10.548;2022-09-20T07:44:09;17.27;;;10.10;;
7049;SDS011;22263;52.260;10.548;2022-09-20T07:46:55;16.65;;;9.82;;
7049;SDS011;22263;52.260;10.548;2022-09-20T07:49:34;16.15;;;9.68;;
7049;SDS011;22263;52.260;10.548;2022-09-20T07:52:13;16.65;;;8.30;;
7049;SDS011;22263;52.260;10.548;2022-09-20T07:54:57;13.20;;;8.43;;
7049;SDS011;22263;52.260;10.548;2022-09-20T07:57:33;11.48;;;8.13;;
7049;SDS011;22263;52.260;10.548;2022-09-20T08:00:07;15.45;;;8.50;;
7049;SDS011;22263;52.260;10.548;2022-09-20T08:02:44;12.02;;;7.75;;
7049;SDS011;22263;52.260;10.548;2022-09-20T08:05:42;51.20;;;34.13;;
7049;SDS011;22263;52.260;10.548;2022-09-20T08:08:12;12.18;;;8.20;;
7049;SDS011;22263;52.260;10.548;2022-09-20T08:11:16;12.50;;;7.40;;
7049;SDS011;22263;52.260;10.548;2022-09-20T08:14:02;9.10;;;6.95;;
7049;SDS011;22263;52.260;10.548;2022-09-20T08:16:53;9.35;;;6.40;;
7049;SDS011;22263;52.260;10.548;2022-09-20T08:19:50;10.93;;;6.68;;
7049;SDS011;22263;52.260;10.548;2022-09-20T08:22:38;11.07;;;6.38;;
7049;SDS011;22263;52.260;10.548;2022-09-20T08:25:08;11.00;;;6.45;;
7049;SDS011;22263;52.260;10.548;2022-09-20T08:27:38;8.15;;;5.90;;
7049;SDS011;22263;52.260;10.548;2022-09-20T08:30:09;9.32;;;6.38;;
7049;SDS011;22263;52.260;10.548;2022-09-20T08:32:46;9.75;;;6.15;;
7049;SDS011;22263;52.260;10.548;2022-09-20T08:35:16;16.88;;;11.90;;
7049;SDS011;22263;52.260;10.548;2022-09-20T08:37:56;8.85;;;6.43;;
7049;SDS011;22263;52.260;10.548;2022-09-20T08:40:46;8.70;;;5.60;;
7049;SDS011;22263;52.260;10.548;2022-09-20T08:43:17;8.60;;;5.80;;
7049;SDS011;22263;52.260;10.548;2022-09-20T08:45:48;6.15;;;5.40;;
7049;SDS011;22263;52.260;10.548;2022-09-20T08:48:18;7.72;;;5.32;;
7049;SDS011;22263;52.260;10.548;2022-09-20T08:50:53;10.35;;;6.20;;
7049;SDS011;22263;52.260;10.548;2022-09-20T08:57:00;6.60;;;5.10;;
7049;SDS011;22263;52.260;10.548;2022-09-20T08:59:43;8.13;;;5.18;;
7049;SDS011;22263;52.260;10.548;2022-09-20T09:02:16;8.18;;;4.80;;
7049;SDS011;22263;52.260;10.548;2022-09-20T09:04:48;5.18;;;4.68;;
7049;SDS011;22263;52.260;10.548;2022-09-20T09:07:20;6.78;;;4.47;;
7049;SDS011;22263;52.260;10.548;2022-09-20T09:09:53;7.78;;;4.50;;
7049;SDS011;22263;52.260;10.548;2022-09-20T09:12:29;7.85;;;4.35;;
7049;SDS011;22263;52.260;10.548;2022-09-20T09:15:15;18.52;;;12.45;;
7049;SDS011;22263;52.260;10.548;2022-09-20T09:17:59;29.17;;;24.00;;
7049;SDS011;22263;52.260;10.548;2022-09-20T09:20:42;7.60;;;5.18;;
7049;SDS011;22263;52.260;10.548;2022-09-20T09:23:36;8.90;;;4.78;;
7049;SDS011;22263;52.260;10.548;2022-09-20T09:26:18;5.85;;;4.60;;
7049;SDS011;22263;52.260;10.548;2022-09-20T09:29:13;7.40;;;4.32;;
7049;SDS011;22263;52.260;10.548;2022-09-20T09:31:50;13.23;;;9.85;;
7049;SDS011;22263;52.260;10.548;2022-09-20T09:34:38;10.75;;;6.30;;
7049;SDS011;22263;52.260;10.548;2022-09-20T09:37:20;8.73;;;6.28;;
7049;SDS011;22263;52.260;10.548;2022-09-20T09:40:11;6.55;;;4.05;;
7049;SDS011;22263;52.260;10.548;2022-09-20T09:42:49;6.07;;;3.85;;
7049;SDS011;22263;52.260;10.548;2022-09-20T09:45:30;4.00;;;3.55;;
7049;SDS011;22263;52.260;10.548;2022-09-20T09:48:15;6.40;;;4.13;;
7049;SDS011;22263;52.260;10.548;2022-09-20T09:53:46;7.72;;;4.65;;
7049;SDS011;22263;52.260;10.548;2022-09-20T09:56:19;5.97;;;3.17;;
7049;SDS011;22263;52.260;10.548;2022-09-20T09:59:13;5.15;;;3.38;;
7049;SDS011;22263;52.260;10.548;2022-09-20T10:05:02;6.15;;;3.40;;
7049;SDS011;22263;52.260;10.548;2022-09-20T10:07:47;4.30;;;2.60;;
7049;SDS011;22263;52.260;10.548;2022-09-20T10:10:25;4.07;;;2.33;;
7049;SDS011;22263;52.260;10.548;2022-09-20T10:13:17;3.10;;;2.35;;
7049;SDS011;22263;52.260;10.548;2022-09-20T10:16:03;4.05;;;2.50;;
7049;SDS011;22263;52.260;10.548;2022-09-20T10:18:52;4.45;;;2.33;;
7049;SDS011;22263;52.260;10.548;2022-09-20T10:21:38;3.63;;;2.67;;
7049;SDS011;22263;52.260;10.548;2022-09-20T10:24:32;2.67;;;2.20;;
7049;SDS011;22263;52.260;10.548;2022-09-20T10:27:30;5.63;;;4.22;;
7049;SDS011;22263;52.260;10.548;2022-09-20T10:30:21;2.33;;;2.08;;
7049;SDS011;22263;52.260;10.548;2022-09-20T10:32:56;2.70;;;1.80;;
7049;SDS011;22263;52.260;10.548;2022-09-20T10:35:36;4.93;;;1.70;;
7049;SDS011;22263;52.260;10.548;2022-09-20T10:38:22;4.03;;;1.70;;
7049;SDS011;22263;52.260;10.548;2022-09-20T10:41:08;4.45;;;1.88;;
7049;SDS011;22263;52.260;10.548;2022-09-20T10:44:24;2.53;;;1.80;;
7049;SDS011;22263;52.260;10.548;2022-09-20T10:47:05;2.63;;;2.17;;
7049;SDS011;22263;52.260;10.548;2022-09-20T10:49:51;2.10;;;1.75;;
7049;SDS011;22263;52.260;10.548;2022-09-20T10:52:42;2.72;;;1.80;;
7049;SDS011;22263;52.260;10.548;2022-09-20T10:55:41;4.50;;;1.98;;
7049;SDS011;22263;52.260;10.548;2022-09-20T10:58:40;1.75;;;1.52;;
7049;SDS011;22263;52.260;10.548;2022-09-20T11:01:22;3.50;;;1.52;;
7049;SDS011;22263;52.260;10.548;2022-09-20T11:04:09;2.63;;;1.50;;
7049;SDS011;22263;52.260;10.548;2022-09-20T11:07:09;2.45;;;1.10;;
7049;SDS011;22263;52.260;10.548;2022-09-20T11:09:49;25.83;;;18.45;;
7049;SDS011;22263;52.260;10.548;2022-09-20T11:12:25;2.15;;;1.60;;
7049;SDS011;22263;52.260;10.548;2022-09-20T11:15:01;1.98;;;1.08;;
7049;SDS011;22263;52.260;10.548;2022-09-20T11:17:43;2.15;;;1.25;;
7049;SDS011;22263;52.260;10.548;2022-09-20T11:20:22;1.88;;;1.20;;
7049;SDS011;22263;52.260;10.548;2022-09-20T11:22:58;2.92;;;1.10;;
7049;SDS011;22263;52.260;10.548;2022-09-20T11:25:37;3.97;;;1.60;;
7049;SDS011;22263;52.260;10.548;2022-09-20T11:28:14;2.72;;;1.42;;
7049;SDS011;22263;52.260;10.548;2022-09-20T11:30:54;4.63;;;1.20;;
7049;SDS011;22263;52.260;10.548;2022-09-20T11:33:34;1.45;;;1.10;;
7049;SDS011;22263;52.260;10.548;2022-09-20T11:36:16;2.20;;;1.02;;
7049;SDS011;22263;52.260;10.548;2022-09-20T11:38:57;2.85;;;1.02;;
7049;SDS011;22263;52.260;10.548;2022-09-20T11:41:36;25.20;;;20.45;;
7049;SDS011;22263;52.260;10.548;2022-09-20T11:44:28;5.15;;;3.25;;
7049;SDS011;22263;52.260;10.548;2022-09-20T11:47:28;6.43;;;1.75;;
7049;SDS011;22263;52.260;10.548;2022-09-20T11:53:19;2.97;;;1.42;;
7049;SDS011;22263;52.260;10.548;2022-09-20T11:56:02;1.85;;;1.00;;
7049;SDS011;22263;52.260;10.548;2022-09-20T11:58:47;1.35;;;1.00;;
7049;SDS011;22263;52.260;10.548;2022-09-20T12:01:30;2.03;;;1.27;;
7049;SDS011;22263;52.260;10.548;2022-09-20T12:04:05;2.83;;;1.30;;
7049;SDS011;22263;52.260;10.548;2022-09-20T12:07:05;2.70;;;1.40;;
7049;SDS011;22263;52.260;10.548;2022-09-20T12:09:51;2.60;;;1.45;;
7049;SDS011;22263;52.260;10.548;2022-09-20T12:12:32;3.75;;;1.27;;
7049;SDS011;22263;52.260;10.548;2022-09-20T12:15:24;3.38;;;1.70;;
7049;SDS011;22263;52.260;10.548;2022-09-20T12:24:35;1.33;;;0.50;;
7049;SDS011;22263;52.260;10.548;2022-09-20T12:27:53;2.63;;;1.20;;
7049;SDS011;22263;52.260;10.548;2022-09-20T12:30:31;4.10;;;1.77;;
7049;SDS011;22263;52.260;10.548;2022-09-20T12:36:24;1.55;;;0.70;;
7049;SDS011;22263;52.260;10.548;2022-09-20T12:39:04;2.17;;;1.30;;
7049;SDS011;22263;52.260;10.548;2022-09-20T12:41:56;1.00;;;0.73;;
7049;SDS011;22263;52.260;10.548;2022-09-20T12:44:58;6.20;;;3.53;;
7049;SDS011;22263;52.260;10.548;2022-09-20T12:48:14;6.30;;;4.70;;
7049;SDS011;22263;52.260;10.548;2022-09-20T12:51:18;2.03;;;1.02;;
7049;SDS011;22263;52.260;10.548;2022-09-20T12:54:47;0.73;;;0.70;;
7049;SDS011;22263;52.260;10.548;2022-09-20T12:57:37;1.30;;;0.60;;
7049;SDS011;22263;52.260;10.548;2022-09-20T13:00:33;3.13;;;1.30;;
7049;SDS011;22263;52.260;10.548;2022-09-20T13:03:22;1.70;;;1.00;;
7049;SDS011;22263;52.260;10.548;2022-09-20T13:09:07;1.35;;;1.02;;
7049;SDS011;22263;52.260;10.548;2022-09-20T13:11:48;3.20;;;1.10;;
7049;SDS011;22263;52.260;10.548;2022-09-20T13:14:28;1.30;;;0.93;;
7049;SDS011;22263;52.260;10.548;2022-09-20T13:17:02;1.80;;;0.70;;
7049;SDS011;22263;52.260;10.548;2022-09-20T13:19:56;1.73;;;0.80;;
7049;SDS011;22263;52.260;10.548;2022-09-20T13:22:33;1.38;;;0.60;;
7049;SDS011;22263;52.260;10.548;2022-09-20T13:25:14;2.92;;;1.17;;
7049;SDS011;22263;52.260;10.548;2022-09-20T13:27:50;4.55;;;1.40;;
7049;SDS011;22263;52.260;10.548;2022-09-20T13:30:37;2.53;;;0.85;;
7049;SDS011;22263;52.260;10.548;2022-09-20T13:33:19;2.30;;;0.85;;
7049;SDS011;22263;52.260;10.548;2022-09-20T13:35:54;3.38;;;1.08;;
7049;SDS011;22263;52.260;10.548;2022-09-20T13:38:33;3.22;;;1.10;;
7049;SDS011;22263;52.260;10.548;2022-09-20T13:41:06;1.85;;;0.82;;
7049;SDS011;22263;52.260;10.548;2022-09-20T13:43:39;2.67;;;1.00;;
7049;SDS011;22263;52.260;10.548;2022-09-20T13:46:14;3.30;;;1.08;;
7049;SDS011;22263;52.260;10.548;2022-09-20T13:48:52;3.15;;;0.95;;
7049;SDS011;22263;52.260;10.548;2022-09-20T13:51:34;2.75;;;0.93;;
7049;SDS011;22263;52.260;10.548;2022-09-20T13:54:24;2.20;;;1.08;;
7049;SDS011;22263;52.260;10.548;2022-09-20T13:57:11;3.60;;;1.00;;
7049;SDS011;22263;52.260;10.548;2022-09-20T13:59:49;2.00;;;0.80;;
7049;SDS011;22263;52.260;10.548;2022-09-20T14:02:21;1.92;;;1.10;;
7049;SDS011;22263;52.260;10.548;2022-09-20T14:05:12;3.28;;;1.20;;
7049;SDS011;22263;52.260;10.548;2022-09-20T14:08:23;2.47;;;1.30;;
7049;SDS011;22263;52.260;10.548;2022-09-20T14:11:45;2.10;;;1.00;;
7049;SDS011;22263;52.260;10.548;2022-09-20T14:14:50;1.45;;;1.20;;
7049;SDS011;22263;52.260;10.548;2022-09-20T14:20:45;2.45;;;1.17;;
7049;SDS011;22263;52.260;10.548;2022-09-20T14:32:40;3.95;;;1.20;;
7049;SDS011;22263;52.260;10.548;2022-09-20T14:35:20;5.63;;;1.73;;
7049;SDS011;22263;52.260;10.548;2022-09-20T14:37:53;3.05;;;1.27;;
7049;SDS011;22263;52.260;10.548;2022-09-20T14:40:31;1.58;;;0.90;;
7049;SDS011;22263;52.260;10.548;2022-09-20T14:46:30;1.85;;;1.15;;
7049;SDS011;22263;52.260;10.548;2022-09-20T14:50:02;1.42;;;1.00;;
7049;SDS011;22263;52.260;10.548;2022-09-20T14:53:25;0.98;;;0.88;;
7049;SDS011;22263;52.260;10.548;2022-09-20T14:56:14;2.50;;;1.10;;
7049;SDS011;22263;52.260;10.548;2022-09-20T14:59:21;0.50;;;0.45;;
7049;SDS011;22263;52.260;10.548;2022-09-20T15:02:10;1.15;;;0.50;;
7049;SDS011;22263;52.260;10.548;2022-09-20T15:05:03;32.63;;;25.48;;
7049;SDS011;22263;52.260;10.548;2022-09-20T15:08:15;14.60;;;13.05;;
7049;SDS011;22263;52.260;10.548;2022-09-20T15:11:27;10.35;;;5.20;;
7049;SDS011;22263;52.260;10.548;2022-09-20T15:15:29;9.00;;;7.32;;
7049;SDS011;22263;52.260;10.548;2022-09-20T15:18:07;3.65;;;2.30;;
7049;SDS011;22263;52.260;10.548;2022-09-20T15:20:58;1.15;;;0.85;;
7049;SDS011;22263;52.260;10.548;2022-09-20T15:23:29;1.17;;;0.70;;
7049;SDS011;22263;52.260;10.548;2022-09-20T15:26:22;1.67;;;0.80;;
7049;SDS011;22263;52.260;10.548;2022-09-20T15:29:01;5.10;;;1.30;;
7049;SDS011;22263;52.260;10.548;2022-09-20T15:31:35;1.88;;;1.40;;
7049;SDS011;22263;52.260;10.548;2022-09-20T15:34:05;2.20;;;1.20;;
7049;SDS011;22263;52.260;10.548;2022-09-20T15:36:38;3.08;;;1.75;;
7049;SDS011;22263;52.260;10.548;2022-09-20T15:39:08;12.25;;;5.45;;
7049;SDS011;22263;52.260;10.548;2022-09-20T15:42:27;2.08;;;1.10;;
7049;SDS011;22263;52.260;10.548;2022-09-20T15:45:46;3.05;;;1.13;;
7049;SDS011;22263;52.260;10.548;2022-09-20T15:48:25;2.30;;;1.60;;
7049;SDS011;22263;52.260;10.548;2022-09-20T15:51:25;2.10;;;1.70;;
7049;SDS011;22263;52.260;10.548;2022-09-20T15:53:59;6.25;;;2.78;;
7049;SDS011;22263;52.260;10.548;2022-09-20T15:56:57;3.25;;;1.23;;
7049;SDS011;22263;52.260;10.548;2022-09-20T16:00:24;1.85;;;1.30;;
7049;SDS011;22263;52.260;10.548;2022-09-20T16:03:15;3.17;;;1.58;;
7049;SDS011;22263;52.260;10.548;2022-09-20T16:05:55;1.50;;;1.20;;
7049;SDS011;22263;52.260;10.548;2022-09-20T16:08:32;3.88;;;1.55;;
7049;SDS011;22263;52.260;10.548;2022-09-20T16:11:43;2.55;;;1.23;;
7049;SDS011;22263;52.260;10.548;2022-09-20T16:14:24;3.05;;;1.00;;
7049;SDS011;22263;52.260;10.548;2022-09-20T16:16:58;3.00;;;1.38;;
7049;SDS011;22263;52.260;10.548;2022-09-20T16:19:30;1.63;;;1.30;;
7049;SDS011;22263;52.260;10.548;2022-09-20T16:21:58;3.83;;;1.42;;
7049;SDS011;22263;52.260;10.548;2022-09-20T16:24:39;4.90;;;1.95;;
7049;SDS011;22263;52.260;10.548;2022-09-20T16:27:12;2.42;;;1.30;;
7049;SDS011;22263;52.260;10.548;2022-09-20T16:29:45;3.97;;;1.40;;
7049;SDS011;22263;52.260;10.548;2022-09-20T16:32:18;3.35;;;1.45;;
7049;SDS011;22263;52.260;10.548;2022-09-20T16:35:14;5.03;;;1.45;;
7049;SDS011;22263;52.260;10.548;2022-09-20T16:37:48;3.05;;;1.17;;
7049;SDS011;22263;52.260;10.548;2022-09-20T16:40:25;2.90;;;1.48;;
7049;SDS011;22263;52.260;10.548;2022-09-20T16:43:12;4.25;;;1.35;;
7049;SDS011;22263;52.260;10.548;2022-09-20T16:46:00;1.88;;;1.30;;
7049;SDS011;22263;52.260;10.548;2022-09-20T16:48:41;3.33;;;1.30;;
7049;SDS011;22263;52.260;10.548;2022-09-20T16:51:28;2.15;;;1.42;;
7049;SDS011;22263;52.260;10.548;2022-09-20T16:54:01;3.38;;;1.58;;
7049;SDS011;22263;52.260;10.548;2022-09-20T16:56:37;2.38;;;1.50;;
7049;SDS011;22263;52.260;10.548;2022-09-20T16:59:46;3.97;;;1.77;;
7049;SDS011;22263;52.260;10.548;2022-09-20T17:02:22;4.13;;;1.45;;
7049;SDS011;22263;52.260;10.548;2022-09-20T17:04:54;2.72;;;1.50;;
7049;SDS011;22263;52.260;10.548;2022-09-20T17:07:28;2.90;;;1.65;;
7049;SDS011;22263;52.260;10.548;2022-09-20T17:10:00;2.88;;;1.88;;
7049;SDS011;22263;52.260;10.548;2022-09-20T17:12:38;3.70;;;1.80;;
7049;SDS011;22263;52.260;10.548;2022-09-20T17:15:17;4.30;;;1.98;;
7049;SDS011;22263;52.260;10.548;2022-09-20T17:17:53;2.63;;;1.52;;
7049;SDS011;22263;52.260;10.548;2022-09-20T17:20:39;3.33;;;2.00;;
7049;SDS011;22263;52.260;10.548;2022-09-20T17:23:30;2.78;;;1.88;;
7049;SDS011;22263;52.260;10.548;2022-09-20T17:26:33;5.68;;;4.50;;
7049;SDS011;22263;52.260;10.548;2022-09-20T17:32:16;8.90;;;4.80;;
7049;SDS011;22263;52.260;10.548;2022-09-20T17:34:53;5.97;;;4.00;;
7049;SDS011;22263;52.260;10.548;2022-09-20T17:37:31;5.22;;;4.15;;
7049;SDS011;22263;52.260;10.548;2022-09-20T17:40:09;6.05;;;4.00;;